createdAt,value
2023-04-22T00:01:35.138Z,18.50
2023-04-22T00:04:03.166Z,19.77
2023-04-22T00:06:32.066Z,18.08
2023-04-22T00:08:59.874Z,16.87
2023-04-22T00:11:29.041Z,18.20
2023-04-22T00:13:57.428Z,19.15
2023-04-22T00:16:26.248Z,20.70
2023-04-22T00:18:54.122Z,20.02
2023-04-22T00:21:22.583Z,23.27
2023-04-22T00:23:50.369Z,20.20
2023-04-22T00:26:18.195Z,20.52
2023-04-22T00:28:47.886Z,19.75
2023-04-22T00:33:43.436Z,18.55
2023-04-22T00:36:11.775Z,18.40
2023-04-22T00:38:39.642Z,19.42
2023-04-22T00:41:08.198Z,18.60
2023-04-22T00:43:36.612Z,20.02
2023-04-22T00:46:06.088Z,17.77
2023-04-22T00:48:34.162Z,18.80
2023-04-22T00:51:02.619Z,19.95
2023-04-22T00:53:30.441Z,18.85
2023-04-22T00:55:58.387Z,19.35
2023-04-22T00:58:29.590Z,20.38
2023-04-22T01:00:58.002Z,18.95
2023-04-22T01:03:31.019Z,20.20
2023-04-22T01:05:59.218Z,21.17
2023-04-22T01:08:32.903Z,21.88
2023-04-22T01:11:01.235Z,24.55
2023-04-22T01:13:30.543Z,19.52
2023-04-22T01:16:00.408Z,20.63
2023-04-22T01:18:29.626Z,22.30
2023-04-22T01:20:57.596Z,22.38
2023-04-22T01:23:27.628Z,22.15
2023-04-22T01:25:56.065Z,24.05
2023-04-22T01:28:24.833Z,20.85
2023-04-22T01:30:53.917Z,23.33
2023-04-22T01:33:21.826Z,21.73
2023-04-22T01:35:49.643Z,24.20
2023-04-22T01:38:18.030Z,26.42
2023-04-22T01:40:47.186Z,26.13
2023-04-22T01:43:14.997Z,27.65
2023-04-22T01:45:44.049Z,24.70
2023-04-22T01:48:12.211Z,26.23
2023-04-22T01:50:40.076Z,25.98
2023-04-22T01:53:09.599Z,26.17
2023-04-22T01:55:37.652Z,27.67
2023-04-22T01:58:06.870Z,25.20
2023-04-22T02:00:35.287Z,25.98
2023-04-22T02:03:03.288Z,24.15
2023-04-22T02:05:31.241Z,24.85
2023-04-22T02:07:59.669Z,25.95
2023-04-22T02:10:27.492Z,25.73
2023-04-22T02:12:55.352Z,25.67
2023-04-22T02:15:25.146Z,23.98
2023-04-22T02:17:53.044Z,26.80
2023-04-22T02:20:20.875Z,27.08
2023-04-22T02:22:49.407Z,24.63
2023-04-22T02:25:17.623Z,23.60
2023-04-22T02:27:45.464Z,27.90
2023-04-22T02:30:13.972Z,24.05
2023-04-22T02:32:43.206Z,25.10
2023-04-22T02:35:12.302Z,21.52
2023-04-22T02:37:40.956Z,22.15
2023-04-22T02:40:09.876Z,22.20
2023-04-22T02:42:37.700Z,24.10
2023-04-22T02:45:07.028Z,21.58
2023-04-22T02:47:34.874Z,23.58
2023-04-22T02:50:04.144Z,22.27
2023-04-22T02:52:32.512Z,24.67
2023-04-22T02:55:00.529Z,22.27
2023-04-22T02:57:28.458Z,22.88
2023-04-22T02:59:57.653Z,23.40
2023-04-22T03:02:25.596Z,22.20
2023-04-22T03:04:54.421Z,22.25
2023-04-22T03:07:23.637Z,23.43
2023-04-22T03:09:51.441Z,23.25
2023-04-22T03:12:19.235Z,24.65
2023-04-22T03:14:47.618Z,24.52
2023-04-22T03:17:15.407Z,24.25
2023-04-22T03:19:43.750Z,24.50
2023-04-22T03:22:12.290Z,25.15
2023-04-22T03:24:41.450Z,24.20
2023-04-22T03:27:10.550Z,25.48
2023-04-22T03:29:39.035Z,23.55
2023-04-22T03:32:07.091Z,26.17
2023-04-22T03:34:37.102Z,28.02
2023-04-22T03:37:05.708Z,27.10
2023-04-22T03:39:33.464Z,27.13
2023-04-22T03:42:02.669Z,24.80
2023-04-22T03:44:30.788Z,26.40
2023-04-22T03:46:58.572Z,25.75
2023-04-22T03:49:27.125Z,25.38
2023-04-22T03:51:55.520Z,27.13
2023-04-22T03:54:23.291Z,28.38
2023-04-22T03:56:51.067Z,30.45
2023-04-22T03:59:21.050Z,27.38
2023-04-22T04:01:48.874Z,25.38
2023-04-22T04:04:17.068Z,27.40
2023-04-22T04:06:45.550Z,26.38
2023-04-22T04:09:13.417Z,25.77
2023-04-22T04:11:41.218Z,25.92
2023-04-22T04:14:10.250Z,28.27
2023-04-22T04:16:39.406Z,25.55
2023-04-22T04:19:07.413Z,28.95
2023-04-22T04:21:35.609Z,27.42
2023-04-22T04:24:04.257Z,28.45
2023-04-22T04:26:32.530Z,25.52
2023-04-22T04:29:02.184Z,26.00
2023-04-22T04:33:59.017Z,25.17
2023-04-22T04:36:29.634Z,25.60
2023-04-22T04:38:57.391Z,24.90
2023-04-22T04:41:27.004Z,27.15
2023-04-22T04:46:23.520Z,27.92
2023-04-22T04:48:53.960Z,25.40
2023-04-22T04:51:23.708Z,28.80
2023-04-22T04:56:19.160Z,30.60
2023-04-22T04:58:47.404Z,28.35
2023-04-22T05:01:15.233Z,28.88
2023-04-22T05:03:43.153Z,29.25
2023-04-22T05:06:11.915Z,27.20
2023-04-22T05:08:41.094Z,26.95
2023-04-22T05:11:08.897Z,26.80
2023-04-22T05:13:37.240Z,28.33
2023-04-22T05:16:05.322Z,28.05
2023-04-22T05:18:33.177Z,28.42
2023-04-22T05:21:01.475Z,26.75
2023-04-22T05:23:30.047Z,28.58
2023-04-22T05:25:59.438Z,27.98
2023-04-22T05:28:27.773Z,28.60
2023-04-22T05:30:55.572Z,29.08
2023-04-22T05:33:23.396Z,28.92
2023-04-22T05:35:52.838Z,29.55
2023-04-22T05:38:20.636Z,27.23
2023-04-22T05:40:48.498Z,28.15
2023-04-22T05:43:18.523Z,30.13
2023-04-22T05:45:46.379Z,27.77
2023-04-22T05:48:14.153Z,25.50
2023-04-22T05:50:42.526Z,28.48
2023-04-22T05:53:10.303Z,25.20
2023-04-22T05:55:38.122Z,27.40
2023-04-22T05:58:06.505Z,29.15
2023-04-22T06:00:35.702Z,30.20
2023-04-22T06:03:03.775Z,28.77
2023-04-22T06:05:32.335Z,28.48
2023-04-22T06:08:00.355Z,28.95
2023-04-22T06:10:28.201Z,31.95
2023-04-22T06:12:56.510Z,32.85
2023-04-22T06:15:24.287Z,35.20
2023-04-22T06:17:53.486Z,32.00
2023-04-22T06:20:21.826Z,35.45
2023-04-22T06:22:49.614Z,32.25
2023-04-22T06:25:17.593Z,35.72
2023-04-22T06:27:46.249Z,35.88
2023-04-22T06:30:14.604Z,36.63
2023-04-22T06:32:42.396Z,36.22
2023-04-22T06:35:12.377Z,34.28
2023-04-22T06:37:40.236Z,32.83
2023-04-22T06:40:09.345Z,35.30
2023-04-22T06:42:37.874Z,33.42
2023-04-22T06:45:06.408Z,33.53
2023-04-22T06:47:34.353Z,32.38
2023-04-22T06:50:03.787Z,34.92
2023-04-22T06:52:32.942Z,32.78
2023-04-22T06:55:00.802Z,31.55
2023-04-22T06:57:29.157Z,33.78
2023-04-22T06:59:57.038Z,34.70
2023-04-22T07:02:24.917Z,30.33
2023-04-22T07:04:53.387Z,33.28
2023-04-22T07:07:21.578Z,29.88
2023-04-22T07:09:50.745Z,31.75
2023-04-22T07:12:19.217Z,33.10
2023-04-22T07:14:47.887Z,33.75
2023-04-22T07:17:15.762Z,33.97
2023-04-22T07:19:44.192Z,30.90
2023-04-22T07:22:12.196Z,31.48
2023-04-22T07:24:40.923Z,29.48
2023-04-22T07:27:10.525Z,29.77
2023-04-22T07:32:06.609Z,25.95
2023-04-22T07:34:35.127Z,27.83
2023-04-22T07:37:03.071Z,26.60
2023-04-22T07:39:30.859Z,28.08
2023-04-22T07:41:59.157Z,26.92
2023-04-22T07:44:28.309Z,24.92
2023-04-22T07:46:56.258Z,24.58
2023-04-22T07:49:24.661Z,22.50
2023-04-22T07:51:52.687Z,21.67
2023-04-22T07:54:20.479Z,21.40
2023-04-22T07:56:48.923Z,18.52
2023-04-22T07:59:16.709Z,18.77
2023-04-22T08:01:47.063Z,19.30
2023-04-22T08:04:15.815Z,20.27
2023-04-22T08:06:44.160Z,20.02
2023-04-22T08:09:12.019Z,17.63
2023-04-22T08:11:40.587Z,15.75
2023-04-22T08:14:08.385Z,15.95
2023-04-22T08:16:36.215Z,14.35
2023-04-22T08:19:06.303Z,15.32
2023-04-22T08:21:34.215Z,15.48
2023-04-22T08:24:02.030Z,14.43
2023-04-22T08:26:29.879Z,13.27
2023-04-22T08:28:57.686Z,14.93
2023-04-22T08:31:25.559Z,16.90
2023-04-22T08:33:54.035Z,14.93
2023-04-22T08:36:25.862Z,13.88
2023-04-22T08:38:55.182Z,13.45
2023-04-22T08:41:24.505Z,12.57
2023-04-22T08:43:54.057Z,13.15
2023-04-22T08:46:24.534Z,13.27
2023-04-22T08:48:52.676Z,12.30
2023-04-22T08:51:20.888Z,13.20
2023-04-22T08:53:50.847Z,11.57
2023-04-22T08:56:18.715Z,11.95
2023-04-22T08:58:47.420Z,12.40
2023-04-22T09:01:18.663Z,11.43
2023-04-22T09:03:47.329Z,11.93
2023-04-22T09:06:15.781Z,11.93
2023-04-22T09:08:44.941Z,11.95
2023-04-22T09:11:14.183Z,12.07
2023-04-22T09:13:43.315Z,11.60
2023-04-22T09:16:11.930Z,11.85
2023-04-22T09:18:43.535Z,13.93
2023-04-22T09:21:11.539Z,13.75
2023-04-22T09:23:47.875Z,12.10
2023-04-22T09:26:18.497Z,12.52
2023-04-22T09:28:51.811Z,13.30
2023-04-22T09:31:20.681Z,13.57
2023-04-22T09:33:50.735Z,13.68
2023-04-22T09:36:22.864Z,14.00
2023-04-22T09:38:55.438Z,13.57
2023-04-22T09:41:32.178Z,13.93
2023-04-22T09:44:01.482Z,12.95
2023-04-22T09:46:30.822Z,13.05
2023-04-22T09:49:00.535Z,12.73
2023-04-22T09:54:01.947Z,14.48
2023-04-22T09:56:47.962Z,14.82
2023-04-22T09:59:20.745Z,13.15
2023-04-22T10:01:48.809Z,14.25
2023-04-22T10:04:21.694Z,14.23
2023-04-22T10:06:49.978Z,16.45
2023-04-22T10:09:20.148Z,14.95
2023-04-22T10:11:51.725Z,15.80
2023-04-22T10:14:19.654Z,17.42
2023-04-22T10:16:49.214Z,13.68
2023-04-22T10:21:48.902Z,14.93
2023-04-22T10:24:18.331Z,17.15
2023-04-22T10:26:56.791Z,15.82
2023-04-22T10:29:26.623Z,13.90
2023-04-22T10:31:58.309Z,12.82
2023-04-22T10:34:26.572Z,13.93
2023-04-22T10:36:56.140Z,13.55
2023-04-22T10:42:05.895Z,16.58
2023-04-22T10:44:51.222Z,12.85
2023-04-22T10:47:30.301Z,15.65
2023-04-22T10:50:15.926Z,12.90
2023-04-22T10:52:47.804Z,13.65
2023-04-22T10:55:16.254Z,14.50
2023-04-22T10:57:48.455Z,11.60
2023-04-22T11:00:52.469Z,12.10
2023-04-22T11:03:29.249Z,13.07
2023-04-22T11:06:17.144Z,13.07
2023-04-22T11:08:50.118Z,11.30
2023-04-22T11:11:20.020Z,10.32
2023-04-22T11:13:52.534Z,11.20
2023-04-22T11:16:23.393Z,11.23
2023-04-22T11:18:51.700Z,11.50
2023-04-22T11:21:21.660Z,10.73
2023-04-22T11:23:52.454Z,9.68
2023-04-22T11:26:20.433Z,9.05
2023-04-22T11:28:50.243Z,9.73
2023-04-22T11:31:18.198Z,8.65
2023-04-22T11:33:47.795Z,8.63
2023-04-22T11:36:19.467Z,9.75
2023-04-22T11:38:56.100Z,9.23
2023-04-22T11:41:24.677Z,7.65
2023-04-22T11:43:54.904Z,9.73
2023-04-22T11:46:30.711Z,8.57
2023-04-22T11:49:13.138Z,10.40
2023-04-22T11:51:54.269Z,7.70
2023-04-22T11:54:32.872Z,7.63
2023-04-22T11:57:03.812Z,8.10
2023-04-22T11:59:33.053Z,8.63
2023-04-22T12:02:00.913Z,7.80
2023-04-22T12:04:28.882Z,7.03
2023-04-22T12:06:56.627Z,6.47
2023-04-22T12:09:25.708Z,8.65
2023-04-22T12:11:54.195Z,7.35
2023-04-22T12:14:22.034Z,7.07
2023-04-22T12:16:51.855Z,8.13
2023-04-22T12:19:27.439Z,7.20
2023-04-22T12:21:56.972Z,6.85
2023-04-22T12:24:29.357Z,11.93
2023-04-22T12:26:58.648Z,6.68
2023-04-22T12:29:33.473Z,6.65
2023-04-22T12:32:02.710Z,7.45
2023-04-22T12:34:30.540Z,8.10
2023-04-22T12:37:00.317Z,10.02
2023-04-22T12:39:28.116Z,9.18
2023-04-22T12:41:55.878Z,7.80
2023-04-22T12:44:25.177Z,7.25
2023-04-22T12:46:53.544Z,6.78
2023-04-22T12:49:23.173Z,7.20
2023-04-22T12:51:51.293Z,6.82
2023-04-22T12:54:20.707Z,7.72
2023-04-22T12:56:49.427Z,6.97
2023-04-22T12:59:17.203Z,8.83
2023-04-22T13:01:45.115Z,8.10
2023-04-22T13:04:13.199Z,6.05
2023-04-22T13:06:44.276Z,7.35
2023-04-22T13:09:12.952Z,7.50
2023-04-22T13:11:41.257Z,8.18
2023-04-22T13:14:09.058Z,7.05
2023-04-22T13:16:37.021Z,6.68
2023-04-22T13:19:04.961Z,6.00
2023-04-22T13:21:32.983Z,6.07
2023-04-22T13:24:02.275Z,6.53
2023-04-22T13:26:30.202Z,7.43
2023-04-22T13:28:58.058Z,6.50
2023-04-22T13:31:25.871Z,8.23
2023-04-22T13:33:54.257Z,8.43
2023-04-22T13:36:22.176Z,7.57
2023-04-22T13:38:51.097Z,7.03
2023-04-22T13:41:20.460Z,7.43
2023-04-22T13:43:51.810Z,7.03
2023-04-22T13:46:19.777Z,6.03
2023-04-22T13:48:48.031Z,6.40
2023-04-22T13:51:16.202Z,6.18
2023-04-22T13:53:43.997Z,11.88
2023-04-22T13:56:13.233Z,13.35
2023-04-22T13:58:43.425Z,15.15
2023-04-22T14:01:11.384Z,15.25
2023-04-22T14:03:39.782Z,17.08
2023-04-22T14:06:08.125Z,21.70
2023-04-22T14:08:35.950Z,18.52
2023-04-22T14:11:04.722Z,17.55
2023-04-22T14:13:32.518Z,17.63
2023-04-22T14:16:03.124Z,17.65
2023-04-22T14:18:31.628Z,20.67
2023-04-22T14:20:59.441Z,18.10
2023-04-22T14:23:27.241Z,18.10
2023-04-22T14:25:56.268Z,17.55
2023-04-22T14:28:24.273Z,17.90
2023-04-22T14:30:52.139Z,19.95
2023-04-22T14:33:24.028Z,17.90
2023-04-22T14:35:52.143Z,16.40
2023-04-22T14:38:21.845Z,15.90
2023-04-22T14:40:50.922Z,16.83
2023-04-22T14:43:19.890Z,15.90
2023-04-22T14:45:48.287Z,18.35
2023-04-22T14:48:16.623Z,21.00
2023-04-22T14:50:45.881Z,19.33
2023-04-22T14:53:13.691Z,18.55
2023-04-22T14:55:42.037Z,19.80
2023-04-22T14:58:09.969Z,17.10
2023-04-22T15:00:37.901Z,17.58
2023-04-22T15:03:06.282Z,16.88
2023-04-22T15:05:34.290Z,15.07
2023-04-22T15:08:03.480Z,14.25
2023-04-22T15:10:31.320Z,14.90
2023-04-22T15:13:00.257Z,15.23
2023-04-22T15:15:28.099Z,14.60
2023-04-22T15:17:56.579Z,12.88
2023-04-22T15:20:24.498Z,11.98
2023-04-22T15:22:52.301Z,12.35
2023-04-22T15:25:22.306Z,12.30
2023-04-22T15:27:50.119Z,11.93
2023-04-22T15:30:17.938Z,13.07
2023-04-22T15:32:46.143Z,13.82
2023-04-22T15:35:14.232Z,12.63
2023-04-22T15:37:42.171Z,13.35
2023-04-22T15:40:10.912Z,13.57
2023-04-22T15:42:40.091Z,14.47
2023-04-22T15:45:08.960Z,16.98
2023-04-22T15:47:37.871Z,23.13
2023-04-22T15:50:08.704Z,24.10
2023-04-22T15:52:38.203Z,18.42
2023-04-22T15:55:07.511Z,18.35
2023-04-22T15:57:35.604Z,17.13
2023-04-22T16:00:12.057Z,17.20
2023-04-22T16:02:41.721Z,17.02
2023-04-22T16:05:10.759Z,15.95
2023-04-22T16:07:38.616Z,16.83
2023-04-22T16:10:07.415Z,18.83
2023-04-22T16:12:35.702Z,16.63
2023-04-22T16:15:05.557Z,20.80
2023-04-22T16:17:33.444Z,17.30
2023-04-22T16:20:02.072Z,17.42
2023-04-22T16:22:29.946Z,20.98
2023-04-22T16:24:57.739Z,16.95
2023-04-22T16:27:26.250Z,15.27
2023-04-22T16:29:54.048Z,21.00
2023-04-22T16:32:23.226Z,17.67
2023-04-22T16:34:51.608Z,15.07
2023-04-22T16:37:19.383Z,14.43
2023-04-22T16:39:47.418Z,14.23
2023-04-22T16:42:15.564Z,15.80
2023-04-22T16:44:43.334Z,15.75
2023-04-22T16:47:11.138Z,16.65
2023-04-22T16:49:41.083Z,13.85
2023-04-22T16:52:09.116Z,14.88
2023-04-22T16:54:36.903Z,15.43
2023-04-22T16:57:05.329Z,14.93
2023-04-22T16:59:33.658Z,15.25
2023-04-22T17:02:01.941Z,15.68
2023-04-22T17:04:30.895Z,13.38
2023-04-22T17:07:00.629Z,16.08
2023-04-22T17:11:58.035Z,15.95
2023-04-22T17:14:26.339Z,19.98
2023-04-22T17:16:54.465Z,15.30
2023-04-22T17:19:23.132Z,14.60
2023-04-22T17:21:51.161Z,14.87
2023-04-22T17:24:22.270Z,14.45
2023-04-22T17:26:51.322Z,16.23
2023-04-22T17:29:21.634Z,17.42
2023-04-22T17:31:49.980Z,18.80
2023-04-22T17:34:18.724Z,20.85
2023-04-22T17:36:46.817Z,17.13
2023-04-22T17:39:15.434Z,16.58
2023-04-22T17:41:46.118Z,17.55
2023-04-22T17:44:14.093Z,17.05
2023-04-22T17:46:42.388Z,19.55
2023-04-22T17:49:11.427Z,18.58
2023-04-22T17:51:39.679Z,16.17
2023-04-22T17:54:07.850Z,17.15
2023-04-22T17:56:37.158Z,15.30
2023-04-22T17:59:06.716Z,14.38
2023-04-22T18:01:34.983Z,14.07
2023-04-22T18:04:03.759Z,13.60
2023-04-22T18:06:32.473Z,12.25
2023-04-22T18:09:00.807Z,15.18
2023-04-22T18:11:29.620Z,13.55
2023-04-22T18:13:57.797Z,12.65
2023-04-22T18:16:27.472Z,15.75
2023-04-22T18:21:23.468Z,15.10
2023-04-22T18:23:53.295Z,16.55
2023-04-22T18:26:21.886Z,16.63
2023-04-22T18:28:50.103Z,15.63
2023-04-22T18:31:18.438Z,14.93
2023-04-22T18:33:48.680Z,16.85
2023-04-22T18:36:16.798Z,17.35
2023-04-22T18:38:44.913Z,15.35
2023-04-22T18:41:15.335Z,18.15
2023-04-22T18:43:43.418Z,16.83
2023-04-22T18:46:11.588Z,16.17
2023-04-22T18:48:40.395Z,19.20
2023-04-22T18:51:09.956Z,17.10
2023-04-22T18:53:38.061Z,18.98
2023-04-22T18:56:07.039Z,19.90
2023-04-22T18:58:35.165Z,18.05
2023-04-22T19:01:03.321Z,18.42
2023-04-22T19:03:32.378Z,20.48
2023-04-22T19:06:00.637Z,22.13
2023-04-22T19:08:30.091Z,19.55
2023-04-22T19:10:58.880Z,19.10
2023-04-22T19:13:29.588Z,18.20
2023-04-22T19:16:00.631Z,21.15
2023-04-22T19:18:28.874Z,20.13
2023-04-22T19:20:57.161Z,21.25
2023-04-22T19:23:25.902Z,24.77
2023-04-22T19:25:55.689Z,22.17
2023-04-22T19:30:52.677Z,20.67
2023-04-22T19:33:20.974Z,20.40
2023-04-22T19:35:49.379Z,24.40
2023-04-22T19:38:19.808Z,22.48
2023-04-22T19:40:48.693Z,23.63
2023-04-22T19:43:19.834Z,23.75
2023-04-22T19:45:48.191Z,26.90
2023-04-22T19:48:17.259Z,24.20
2023-04-22T19:50:46.540Z,24.30
2023-04-22T19:53:15.406Z,22.00
2023-04-22T19:55:44.628Z,22.00
2023-04-22T19:58:13.390Z,21.67
2023-04-22T20:00:43.717Z,25.30
2023-04-22T20:03:14.631Z,21.60
2023-04-22T20:05:44.489Z,21.77
2023-04-22T20:08:15.137Z,21.77
2023-04-22T20:10:44.519Z,25.25
2023-04-22T20:13:13.107Z,20.98
2023-04-22T20:15:43.441Z,22.50
2023-04-22T20:18:12.286Z,23.58
2023-04-22T20:20:45.080Z,21.30
2023-04-22T20:23:15.780Z,20.92
2023-04-22T20:25:45.889Z,20.15
2023-04-22T20:28:14.361Z,19.65
2023-04-22T20:30:44.674Z,21.85
2023-04-22T20:33:16.723Z,20.73
2023-04-22T20:35:48.073Z,17.90
2023-04-22T20:38:20.040Z,19.48
2023-04-22T20:40:48.866Z,19.50
2023-04-22T20:43:17.274Z,20.20
2023-04-22T20:45:46.891Z,20.85
2023-04-22T20:50:44.320Z,18.70
2023-04-22T20:53:12.954Z,19.23
2023-04-22T20:55:41.385Z,21.02
2023-04-22T20:58:09.676Z,18.48
2023-04-22T21:00:37.929Z,20.08
2023-04-22T21:03:10.425Z,18.08
2023-04-22T21:05:42.253Z,19.45
2023-04-22T21:08:24.736Z,18.48
2023-04-22T21:10:54.168Z,21.75
2023-04-22T21:13:22.846Z,19.10
2023-04-22T21:15:57.653Z,18.60
2023-04-22T21:18:29.044Z,18.92
2023-04-22T21:20:58.213Z,20.50
2023-04-22T21:23:27.819Z,20.80
2023-04-22T21:25:57.329Z,19.23
2023-04-22T21:28:26.054Z,19.10
2023-04-22T21:30:54.831Z,21.73
2023-04-22T21:33:25.262Z,21.10
2023-04-22T21:35:55.711Z,20.17
2023-04-22T21:38:23.788Z,20.15
2023-04-22T21:40:52.416Z,19.38
2023-04-22T21:43:21.254Z,19.07
2023-04-22T21:45:49.344Z,21.27
2023-04-22T21:48:17.403Z,22.48
2023-04-22T21:50:45.913Z,20.27
2023-04-22T21:53:15.591Z,19.80
2023-04-22T21:58:12.267Z,19.60
2023-04-22T22:00:40.640Z,19.77
2023-04-22T22:03:08.990Z,19.65
2023-04-22T22:05:38.268Z,19.38
2023-04-22T22:08:07.085Z,18.50
2023-04-22T22:10:36.986Z,19.73
2023-04-22T22:13:05.715Z,21.00
2023-04-22T22:15:33.990Z,20.37
2023-04-22T22:18:02.150Z,20.05
2023-04-22T22:20:31.380Z,21.17
2023-04-22T22:23:00.804Z,20.17
2023-04-22T22:25:28.993Z,21.40
2023-04-22T22:27:59.027Z,20.02
2023-04-22T22:30:27.222Z,20.23
2023-04-22T22:32:55.374Z,20.75
2023-04-22T22:35:24.043Z,20.67
2023-04-22T22:37:52.146Z,20.08
2023-04-22T22:40:20.262Z,20.25
2023-04-22T22:42:48.787Z,21.15
2023-04-22T22:45:18.298Z,23.52
2023-04-22T22:47:47.087Z,23.80
2023-04-22T22:50:15.964Z,22.60
2023-04-22T22:52:44.203Z,20.48
2023-04-22T22:55:12.167Z,20.85
2023-04-22T22:57:40.846Z,21.30
2023-04-22T23:00:11.930Z,21.43
2023-04-22T23:02:42.479Z,20.02
2023-04-22T23:05:11.182Z,22.42
2023-04-22T23:07:39.214Z,21.08
2023-04-22T23:10:09.298Z,21.15
2023-04-22T23:12:37.454Z,20.73
2023-04-22T23:15:06.604Z,20.90
2023-04-22T23:17:35.307Z,23.25
2023-04-22T23:20:07.400Z,20.23
2023-04-22T23:22:37.727Z,22.55
2023-04-22T23:25:06.984Z,22.05
2023-04-22T23:27:36.089Z,20.60
2023-04-22T23:30:05.657Z,20.08
2023-04-22T23:32:36.513Z,19.73
2023-04-22T23:35:08.445Z,20.17
2023-04-22T23:37:38.964Z,22.02
2023-04-22T23:40:08.980Z,20.67
2023-04-22T23:42:36.984Z,23.38
2023-04-22T23:45:05.602Z,21.70
2023-04-22T23:47:34.698Z,20.95
2023-04-22T23:50:03.308Z,20.95
2023-04-22T23:52:32.744Z,21.80
2023-04-22T23:55:01.915Z,20.33
2023-04-22T23:57:30.592Z,19.83
2023-04-22T23:59:59.019Z,21.63
